createdAt,value
2022-08-17T00:00:52.083Z,99173.20
2022-08-17T00:03:26.972Z,99174.95
2022-08-17T00:06:02.477Z,99173.45
2022-08-17T00:08:36.828Z,99173.29
2022-08-17T00:11:11.278Z,99171.42
2022-08-17T00:13:45.959Z,99168.65
2022-08-17T00:16:22.604Z,99167.55
2022-08-17T00:19:17.877Z,99174.83
2022-08-17T00:22:31.047Z,99167.65
2022-08-17T00:24:43.362Z,99170.91
2022-08-17T00:27:15.596Z,99173.59
2022-08-17T00:29:48.335Z,99180.34
2022-08-17T00:33:15.710Z,99179.09
2022-08-17T00:35:14.460Z,99173.55
2022-08-17T00:37:46.730Z,99170.23
2022-08-17T00:40:20.342Z,99166.80
2022-08-17T00:42:53.565Z,99159.69
2022-08-17T00:45:25.563Z,99160.19
2022-08-17T00:47:57.691Z,99163.58
2022-08-17T00:50:29.804Z,99165.27
2022-08-17T00:53:01.787Z,99165.64
2022-08-17T00:55:34.554Z,99164.21
2022-08-17T00:58:08.507Z,99163.77
2022-08-17T01:00:45.461Z,99165.69
2022-08-17T01:03:21.009Z,99168.56
2022-08-17T01:05:56.159Z,99167.19
2022-08-17T01:08:31.044Z,99164.52
2022-08-17T01:11:05.466Z,99164.45
2022-08-17T01:13:41.700Z,99164.23
2022-08-17T01:16:18.294Z,99167.16
2022-08-17T01:18:54.395Z,99163.98
2022-08-17T01:21:32.581Z,99162.96
2022-08-17T01:24:05.224Z,99162.52
2022-08-17T01:26:40.021Z,99161.48
2022-08-17T01:29:13.715Z,99165.85
2022-08-17T01:31:51.281Z,99165.36
2022-08-17T01:34:24.990Z,99166.95
2022-08-17T01:37:09.893Z,99168.20
2022-08-17T01:39:46.694Z,99165.97
2022-08-17T01:42:26.896Z,99165.36
2022-08-17T01:45:03.674Z,99162.50
2022-08-17T01:47:37.272Z,99166.88
2022-08-17T01:50:13.291Z,99171.08
2022-08-17T01:52:46.892Z,99171.34
2022-08-17T01:55:27.183Z,99173.99
2022-08-17T01:57:59.468Z,99176.31
2022-08-17T02:00:59.370Z,99174.38
2022-08-17T02:03:26.712Z,99173.96
2022-08-17T02:05:59.120Z,99171.39
2022-08-17T02:08:37.190Z,99171.83
2022-08-17T02:11:15.840Z,99173.19
2022-08-17T02:13:49.360Z,99175.11
2022-08-17T02:16:36.954Z,99173.61
2022-08-17T02:19:13.070Z,99169.82
2022-08-17T02:21:46.892Z,99167.00
2022-08-17T02:25:00.619Z,99164.81
2022-08-17T02:27:16.349Z,99166.97
2022-08-17T02:29:48.341Z,99168.08
2022-08-17T02:32:28.185Z,99168.06
2022-08-17T02:35:01.463Z,99168.80
2022-08-17T02:37:34.323Z,99162.00
2022-08-17T02:40:07.720Z,99164.30
2022-08-17T02:42:41.701Z,99167.29
2022-08-17T02:45:16.670Z,99169.67
2022-08-17T02:47:48.840Z,99172.13
2022-08-17T02:50:23.764Z,99174.18
2022-08-17T02:53:02.463Z,99176.13
2022-08-17T02:55:40.272Z,99178.34
2022-08-17T02:58:13.650Z,99183.48
2022-08-17T03:00:48.263Z,99178.81
2022-08-17T03:03:20.400Z,99180.01
2022-08-17T03:05:53.400Z,99180.55
2022-08-17T03:08:25.641Z,99184.35
2022-08-17T03:10:58.437Z,99187.95
2022-08-17T03:13:30.971Z,99186.68
2022-08-17T03:16:03.246Z,99188.26
2022-08-17T03:18:36.048Z,99189.76
2022-08-17T03:21:09.707Z,99190.35
2022-08-17T03:23:42.334Z,99187.83
2022-08-17T03:26:16.350Z,99191.21
2022-08-17T03:28:49.138Z,99187.05
2022-08-17T03:31:21.866Z,99188.30
2022-08-17T03:33:53.969Z,99185.12
2022-08-17T03:36:25.974Z,99186.02
2022-08-17T03:38:58.175Z,99185.83
2022-08-17T03:41:30.089Z,99187.21
2022-08-17T03:44:02.460Z,99190.90
2022-08-17T03:47:03.736Z,99192.83
2022-08-17T03:49:53.453Z,99187.85
2022-08-17T03:52:43.233Z,99188.11
2022-08-17T03:55:36.240Z,99191.91
2022-08-17T03:58:08.731Z,99194.12
2022-08-17T04:00:46.374Z,99198.21
2022-08-17T04:03:19.030Z,99201.51
2022-08-17T04:05:51.283Z,99200.24
2022-08-17T04:08:24.081Z,99204.98
2022-08-17T04:10:57.737Z,99213.41
2022-08-17T04:13:29.963Z,99212.73
2022-08-17T04:16:02.037Z,99217.73
2022-08-17T04:18:34.086Z,99219.20
2022-08-17T04:21:06.298Z,99216.27
2022-08-17T04:23:38.275Z,99216.06
2022-08-17T04:26:10.645Z,99217.97
2022-08-17T04:29:01.245Z,99218.67
2022-08-17T04:31:34.079Z,99223.02
2022-08-17T04:34:06.041Z,99226.95
2022-08-17T04:36:38.838Z,99231.20
2022-08-17T04:39:11.109Z,99230.61
2022-08-17T04:42:00.886Z,99233.61
2022-08-17T04:44:37.510Z,99235.13
2022-08-17T04:47:10.569Z,99237.41
2022-08-17T04:49:45.268Z,99245.45
2022-08-17T04:52:32.165Z,99249.95
2022-08-17T04:55:10.873Z,99251.36
2022-08-17T04:57:45.065Z,99250.39
2022-08-17T05:00:18.394Z,99249.58
2022-08-17T05:02:52.569Z,99253.20
2022-08-17T05:05:26.989Z,99248.52
2022-08-17T05:08:01.187Z,99252.97
2022-08-17T05:10:37.106Z,99256.82
2022-08-17T05:13:19.180Z,99248.46
2022-08-17T05:15:54.984Z,99247.48
2022-08-17T05:18:27.608Z,99249.81
2022-08-17T05:21:00.143Z,99253.68
2022-08-17T05:23:41.759Z,99261.23
2022-08-17T05:26:23.166Z,99262.44
2022-08-17T05:29:02.781Z,99266.34
2022-08-17T05:31:35.116Z,99264.48
2022-08-17T05:34:07.368Z,99265.70
2022-08-17T05:36:43.988Z,99264.77
2022-08-17T05:39:17.654Z,99261.15
2022-08-17T05:41:50.511Z,99259.57
2022-08-17T05:44:22.412Z,99258.02
2022-08-17T05:46:55.281Z,99257.00
2022-08-17T05:49:29.948Z,99261.45
2022-08-17T05:52:20.106Z,99265.55
2022-08-17T05:55:09.144Z,99265.65
2022-08-17T05:57:54.176Z,99270.77
2022-08-17T06:00:32.530Z,99266.98
2022-08-17T06:03:39.138Z,99264.61
2022-08-17T06:06:25.397Z,99262.32
2022-08-17T06:09:27.659Z,99259.15
2022-08-17T06:12:19.716Z,99262.31
2022-08-17T06:15:04.873Z,99259.00
2022-08-17T06:17:37.831Z,99262.39
2022-08-17T06:20:15.417Z,99262.48
2022-08-17T06:22:56.787Z,99267.62
2022-08-17T06:25:45.870Z,99265.58
2022-08-17T06:28:25.626Z,99266.02
2022-08-17T06:31:05.797Z,99267.98
2022-08-17T06:33:39.532Z,99270.45
2022-08-17T06:36:26.524Z,99271.09
2022-08-17T06:39:13.865Z,99266.80
2022-08-17T06:41:55.824Z,99271.72
2022-08-17T06:44:43.186Z,99271.48
2022-08-17T06:47:29.987Z,99273.89
2022-08-17T06:50:10.145Z,99268.73
2022-08-17T06:52:51.907Z,99262.77
2022-08-17T06:55:27.548Z,99266.14
2022-08-17T06:58:16.092Z,99264.23
2022-08-17T07:00:56.649Z,99265.70
2022-08-17T07:03:38.824Z,99264.80
2022-08-17T07:06:15.557Z,99264.46
2022-08-17T07:08:55.047Z,99266.77
2022-08-17T07:11:31.759Z,99266.81
2022-08-17T07:14:17.393Z,99269.40
2022-08-17T07:16:52.355Z,99272.70
2022-08-17T07:19:29.210Z,99275.39
2022-08-17T07:22:14.174Z,99273.55
2022-08-17T07:24:52.315Z,99276.21
2022-08-17T07:27:27.659Z,99280.20
2022-08-17T07:30:05.690Z,99283.67
2022-08-17T07:32:45.398Z,99278.54
2022-08-17T07:35:22.146Z,99277.44
2022-08-17T07:38:24.920Z,99281.44
2022-08-17T07:41:08.642Z,99283.81
2022-08-17T07:43:48.523Z,99283.84
2022-08-17T07:46:40.311Z,99282.86
2022-08-17T07:49:25.385Z,99289.17
2022-08-17T07:52:24.273Z,99290.86
2022-08-17T07:54:53.055Z,99294.91
2022-08-17T07:57:36.772Z,99290.54
2022-08-17T08:00:23.786Z,99289.55
2022-08-17T08:03:13.397Z,99283.56
2022-08-17T08:05:56.022Z,99281.70
2022-08-17T08:08:34.380Z,99284.36
2022-08-17T08:11:12.646Z,99283.53
2022-08-17T08:13:46.122Z,99284.44
2022-08-17T08:16:30.404Z,99283.20
2022-08-17T08:19:04.061Z,99284.48
2022-08-17T08:21:44.358Z,99293.97
2022-08-17T08:24:34.942Z,99297.30
2022-08-17T08:27:16.116Z,99299.98
2022-08-17T08:29:54.018Z,99299.16
2022-08-17T08:32:48.123Z,99297.57
2022-08-17T08:35:31.053Z,99296.64
2022-08-17T08:38:11.544Z,99295.17
2022-08-17T08:41:16.268Z,99297.27
2022-08-17T08:44:00.869Z,99294.86
2022-08-17T08:46:43.898Z,99294.16
2022-08-17T08:50:05.162Z,99296.30
2022-08-17T08:52:52.939Z,99296.46
2022-08-17T08:55:34.408Z,99295.71
2022-08-17T08:58:32.093Z,99297.52
2022-08-17T09:01:17.638Z,99294.38
2022-08-17T09:04:19.593Z,99294.63
2022-08-17T09:07:05.723Z,99297.37
2022-08-17T09:09:50.830Z,99294.16
2022-08-17T09:12:32.990Z,99288.47
2022-08-17T09:15:13.265Z,99286.98
2022-08-17T09:18:14.550Z,99286.44
2022-08-17T09:20:52.256Z,99286.09
2022-08-17T09:23:33.625Z,99285.68
2022-08-17T09:26:13.020Z,99282.84
2022-08-17T09:28:50.816Z,99279.80
2022-08-17T09:31:33.282Z,99282.33
2022-08-17T09:34:12.653Z,99284.31
2022-08-17T09:36:53.479Z,99285.46
2022-08-17T09:39:34.361Z,99282.69
2022-08-17T09:42:13.076Z,99279.35
2022-08-17T09:44:51.752Z,99276.69
2022-08-17T09:47:31.798Z,99274.67
2022-08-17T09:50:11.580Z,99275.15
2022-08-17T09:52:44.920Z,99278.67
2022-08-17T09:55:17.473Z,99275.44
2022-08-17T09:58:05.059Z,99272.20
2022-08-17T10:00:44.730Z,99266.98
2022-08-17T10:03:26.670Z,99266.80
2022-08-17T10:06:07.853Z,99269.41
2022-08-17T10:08:47.087Z,99269.94
2022-08-17T10:11:50.482Z,99267.33
2022-08-17T10:14:37.517Z,99262.70
2022-08-17T10:17:25.838Z,99264.61
2022-08-17T10:20:07.923Z,99263.73
2022-08-17T10:23:01.921Z,99268.63
2022-08-17T10:25:55.545Z,99269.45
2022-08-17T10:28:37.951Z,99262.85
2022-08-17T10:34:28.150Z,99262.45
2022-08-17T10:37:11.007Z,99255.98
2022-08-17T10:39:53.646Z,99254.30
2022-08-17T10:42:33.274Z,99250.06
2022-08-17T10:45:17.220Z,99253.13
2022-08-17T10:48:06.354Z,99254.77
2022-08-17T10:51:01.768Z,99250.69
2022-08-17T10:53:58.277Z,99249.98
2022-08-17T10:56:46.985Z,99254.48
2022-08-17T10:59:55.724Z,99255.96
2022-08-17T11:02:33.186Z,99258.59
2022-08-17T11:05:18.512Z,99258.23
2022-08-17T11:08:08.315Z,99258.30
2022-08-17T11:10:54.630Z,99253.96
2022-08-17T11:13:40.129Z,99253.78
2022-08-17T11:16:33.293Z,99260.42
2022-08-17T11:19:29.222Z,99262.02
2022-08-17T11:22:21.215Z,99259.34
2022-08-17T11:24:55.300Z,99256.41
2022-08-17T11:27:31.099Z,99254.70
2022-08-17T11:30:07.023Z,99252.23
2022-08-17T11:32:47.087Z,99249.48
2022-08-17T11:35:40.097Z,99244.20
2022-08-17T11:38:25.125Z,99244.07
2022-08-17T11:41:27.577Z,99240.54
2022-08-17T11:44:19.709Z,99235.13
2022-08-17T11:47:26.308Z,99234.20
2022-08-17T11:50:45.119Z,99235.27
2022-08-17T11:54:21.631Z,99225.87
2022-08-17T11:56:52.979Z,99224.98
2022-08-17T11:59:59.659Z,99224.95
2022-08-17T12:02:48.173Z,99221.38
2022-08-17T12:05:36.145Z,99222.46
2022-08-17T12:08:22.233Z,99218.70
2022-08-17T12:11:01.359Z,99223.13
2022-08-17T12:13:39.547Z,99222.09
2022-08-17T12:16:17.607Z,99219.11
2022-08-17T12:18:54.755Z,99214.38
2022-08-17T12:21:35.530Z,99212.23
2022-08-17T12:24:24.674Z,99212.17
2022-08-17T12:26:59.564Z,99211.41
2022-08-17T12:29:35.403Z,99207.86
2022-08-17T12:32:18.428Z,99204.72
2022-08-17T12:34:52.173Z,99205.16
2022-08-17T12:37:26.294Z,99208.45
2022-08-17T12:40:01.443Z,99206.82
2022-08-17T12:42:37.491Z,99210.77
2022-08-17T12:45:23.488Z,99209.27
2022-08-17T12:48:07.870Z,99206.51
2022-08-17T12:50:43.752Z,99201.65
2022-08-17T12:53:18.513Z,99194.55
2022-08-17T12:55:52.512Z,99189.46
2022-08-17T12:58:27.691Z,99190.61
2022-08-17T13:01:04.423Z,99183.38
2022-08-17T13:03:41.231Z,99189.17
2022-08-17T13:06:15.410Z,99189.65
2022-08-17T13:08:49.177Z,99189.91
2022-08-17T13:11:24.931Z,99186.95
2022-08-17T13:14:09.121Z,99185.84
2022-08-17T13:16:41.516Z,99180.38
2022-08-17T13:19:29.914Z,99181.48
2022-08-17T13:22:14.510Z,99174.34
2022-08-17T13:24:55.148Z,99174.41
2022-08-17T13:27:29.356Z,99175.30
2022-08-17T13:30:04.074Z,99178.35
2022-08-17T13:32:43.591Z,99184.92
2022-08-17T13:35:39.845Z,99186.80
2022-08-17T13:38:15.112Z,99185.30
2022-08-17T13:40:52.277Z,99185.14
2022-08-17T13:43:45.990Z,99187.66
2022-08-17T13:46:24.440Z,99180.32
2022-08-17T13:49:05.818Z,99179.64
2022-08-17T13:51:37.560Z,99177.26
2022-08-17T13:54:21.795Z,99183.17
2022-08-17T13:56:59.488Z,99190.27
2022-08-17T13:59:54.348Z,99192.77
2022-08-17T14:02:28.769Z,99188.67
2022-08-17T14:05:02.154Z,99185.80
2022-08-17T14:07:40.928Z,99178.66
2022-08-17T14:10:19.034Z,99178.45
2022-08-17T14:12:53.445Z,99184.52
2022-08-17T14:15:55.942Z,99184.22
2022-08-17T14:18:52.063Z,99180.90
2022-08-17T14:21:17.586Z,99177.21
2022-08-17T14:23:54.840Z,99181.59
2022-08-17T14:26:57.569Z,99177.67
2022-08-17T14:29:31.794Z,99176.83
2022-08-17T14:32:08.098Z,99171.90
2022-08-17T14:34:40.193Z,99168.54
2022-08-17T14:37:12.368Z,99165.90
2022-08-17T14:39:44.916Z,99165.81
2022-08-17T14:42:17.665Z,99162.73
2022-08-17T14:44:51.099Z,99160.73
2022-08-17T14:47:23.595Z,99163.27
2022-08-17T14:49:56.059Z,99163.70
2022-08-17T14:52:28.162Z,99169.33
2022-08-17T14:55:00.409Z,99165.23
2022-08-17T14:57:33.575Z,99163.98
2022-08-17T15:00:10.384Z,99163.70
2022-08-17T15:02:54.848Z,99172.80
2022-08-17T15:05:31.647Z,99177.34
2022-08-17T15:08:05.689Z,99176.26
2022-08-17T15:10:39.213Z,99170.50
2022-08-17T15:13:19.692Z,99174.90
2022-08-17T15:15:52.231Z,99176.39
2022-08-17T15:18:25.074Z,99178.25
2022-08-17T15:20:57.366Z,99178.74
2022-08-17T15:23:29.529Z,99174.50
2022-08-17T15:26:01.855Z,99178.73
2022-08-17T15:28:33.866Z,99175.00
2022-08-17T15:31:06.902Z,99176.32
2022-08-17T15:33:38.878Z,99178.15
2022-08-17T15:36:11.503Z,99179.36
2022-08-17T15:38:44.409Z,99179.34
2022-08-17T15:41:18.773Z,99179.10
2022-08-17T15:43:51.387Z,99173.73
2022-08-17T15:46:25.709Z,99173.59
2022-08-17T15:49:00.109Z,99172.90
2022-08-17T15:51:35.469Z,99174.27
2022-08-17T15:54:22.574Z,99176.19
2022-08-17T15:56:55.755Z,99172.36
2022-08-17T15:59:31.031Z,99170.98
2022-08-17T16:03:13.486Z,99170.41
2022-08-17T16:04:57.496Z,99171.35
2022-08-17T16:07:30.407Z,99171.52
2022-08-17T16:10:03.163Z,99170.99
2022-08-17T16:12:35.951Z,99170.25
2022-08-17T16:15:12.319Z,99178.44
2022-08-17T16:17:45.114Z,99176.58
2022-08-17T16:20:20.456Z,99173.92
2022-08-17T16:22:54.956Z,99173.86
2022-08-17T16:25:52.486Z,99173.85
2022-08-17T16:28:30.908Z,99175.03
2022-08-17T16:31:09.317Z,99178.16
2022-08-17T16:33:42.336Z,99175.08
2022-08-17T16:36:34.592Z,99178.45
2022-08-17T16:39:08.821Z,99183.42
2022-08-17T16:41:46.737Z,99183.75
2022-08-17T16:44:21.426Z,99182.84
2022-08-17T16:46:53.542Z,99179.70
2022-08-17T16:49:35.557Z,99185.45
2022-08-17T16:52:11.632Z,99185.42
2022-08-17T16:54:47.001Z,99189.58
2022-08-17T16:57:20.400Z,99192.70
2022-08-17T16:59:53.596Z,99190.21
2022-08-17T17:02:31.684Z,99187.85
2022-08-17T17:05:08.428Z,99191.55
2022-08-17T17:07:52.213Z,99191.45
2022-08-17T17:10:29.625Z,99195.52
2022-08-17T17:13:04.358Z,99189.85
2022-08-17T17:15:47.211Z,99190.95
2022-08-17T17:18:27.843Z,99192.06
2022-08-17T17:21:00.630Z,99191.96
2022-08-17T17:23:41.032Z,99192.96
2022-08-17T17:26:27.448Z,99193.25
2022-08-17T17:29:16.517Z,99199.60
2022-08-17T17:31:57.761Z,99199.45
2022-08-17T17:34:33.813Z,99198.30
2022-08-17T17:37:13.703Z,99202.31
2022-08-17T17:39:52.134Z,99205.11
2022-08-17T17:42:31.518Z,99203.95
2022-08-17T17:45:10.879Z,99206.45
2022-08-17T17:47:43.160Z,99203.57
2022-08-17T17:50:16.908Z,99201.80
2022-08-17T17:53:02.260Z,99204.92
2022-08-17T17:55:54.460Z,99206.79
2022-08-17T17:58:37.114Z,99204.30
2022-08-17T18:01:23.665Z,99209.94
2022-08-17T18:04:20.592Z,99215.59
2022-08-17T18:07:15.414Z,99217.41
2022-08-17T18:10:03.312Z,99217.70
2022-08-17T18:12:44.330Z,99221.35
2022-08-17T18:15:29.659Z,99221.27
2022-08-17T18:18:38.740Z,99222.29
2022-08-17T18:21:19.752Z,99231.90
2022-08-17T18:24:01.180Z,99231.31
2022-08-17T18:26:45.048Z,99232.08
2022-08-17T18:29:31.754Z,99235.16
2022-08-17T18:32:33.932Z,99236.70
2022-08-17T18:35:28.432Z,99239.70
2022-08-17T18:38:21.314Z,99246.97
2022-08-17T18:41:06.730Z,99257.28
2022-08-17T18:43:53.199Z,99256.54
2022-08-17T18:46:35.299Z,99258.61
2022-08-17T18:49:27.299Z,99256.33
2022-08-17T18:52:14.698Z,99251.23
2022-08-17T18:55:04.757Z,99251.70
2022-08-17T18:57:40.985Z,99249.00
2022-08-17T19:00:18.708Z,99252.45
2022-08-17T19:02:56.565Z,99257.59
2022-08-17T19:05:37.928Z,99258.91
2022-08-17T19:08:23.843Z,99256.74
2022-08-17T19:10:59.627Z,99255.85
2022-08-17T19:13:36.813Z,99259.39
2022-08-17T19:16:17.723Z,99263.52
2022-08-17T19:18:59.118Z,99264.82
2022-08-17T19:21:40.492Z,99264.80
2022-08-17T19:24:19.939Z,99265.72
2022-08-17T19:27:01.722Z,99263.11
2022-08-17T19:29:44.334Z,99262.27
2022-08-17T19:32:23.261Z,99263.83
2022-08-17T19:34:56.266Z,99266.37
2022-08-17T19:37:38.057Z,99272.11
2022-08-17T19:40:41.841Z,99278.92
2022-08-17T19:43:25.045Z,99272.84
2022-08-17T19:46:08.173Z,99260.70
2022-08-17T19:48:51.984Z,99258.56
2022-08-17T19:51:38.965Z,99255.20
2022-08-17T19:54:21.655Z,99256.77
2022-08-17T19:57:01.680Z,99265.20
2022-08-17T19:59:51.466Z,99263.20
2022-08-17T20:02:35.268Z,99261.61
2022-08-17T20:05:16.137Z,99258.59
2022-08-17T20:08:00.186Z,99259.09
2022-08-17T20:10:55.224Z,99260.92
2022-08-17T20:13:41.322Z,99258.81
2022-08-17T20:16:18.202Z,99265.38
2022-08-17T20:18:56.557Z,99264.08
2022-08-17T20:21:37.232Z,99264.56
2022-08-17T20:24:21.439Z,99269.86
2022-08-17T20:26:59.291Z,99276.51
2022-08-17T20:30:09.353Z,99274.10
2022-08-17T20:32:55.502Z,99273.92
2022-08-17T20:35:31.039Z,99279.23
2022-08-17T20:38:06.721Z,99281.40
2022-08-17T20:41:00.894Z,99275.98
2022-08-17T20:43:51.336Z,99277.58
2022-08-17T20:46:51.467Z,99279.60
2022-08-17T20:49:30.919Z,99283.62
2022-08-17T20:52:08.896Z,99283.89
2022-08-17T20:54:54.342Z,99279.71
2022-08-17T20:57:48.623Z,99277.18
2022-08-17T21:00:45.812Z,99273.26
2022-08-17T21:03:52.274Z,99272.98
2022-08-17T21:06:26.990Z,99269.86
2022-08-17T21:09:20.782Z,99268.12
2022-08-17T21:12:05.559Z,99268.48
2022-08-17T21:14:59.794Z,99266.86
2022-08-17T21:17:47.578Z,99268.14
2022-08-17T21:20:33.207Z,99255.00
2022-08-17T21:23:20.882Z,99244.88
2022-08-17T21:26:09.540Z,99249.29
2022-08-17T21:29:00.793Z,99248.41
2022-08-17T21:31:37.155Z,99244.83
2022-08-17T21:34:36.015Z,99247.30
2022-08-17T21:37:35.215Z,99248.09
2022-08-17T21:40:25.696Z,99246.67
2022-08-17T21:43:26.614Z,99243.95
2022-08-17T21:46:05.549Z,99250.73
2022-08-17T21:48:48.270Z,99249.86
2022-08-17T21:51:24.447Z,99247.30
2022-08-17T21:53:58.717Z,99244.49
2022-08-17T21:56:34.147Z,99243.23
2022-08-17T21:59:09.763Z,99242.50
2022-08-17T22:01:43.922Z,99240.49
2022-08-17T22:04:29.039Z,99237.86
2022-08-17T22:07:03.397Z,99235.05
2022-08-17T22:09:41.710Z,99234.42
2022-08-17T22:12:18.812Z,99239.73
2022-08-17T22:15:02.604Z,99241.45
2022-08-17T22:17:41.259Z,99241.53
2022-08-17T22:20:17.976Z,99246.05
2022-08-17T22:23:29.235Z,99246.70
2022-08-17T22:26:04.022Z,99254.77
2022-08-17T22:28:46.814Z,99251.38
2022-08-17T22:31:21.022Z,99254.05
2022-08-17T22:34:08.133Z,99263.39
2022-08-17T22:36:42.225Z,99272.55
2022-08-17T22:39:43.045Z,99274.64
2022-08-17T22:42:17.384Z,99269.68
2022-08-17T22:44:51.685Z,99278.45
2022-08-17T22:47:41.010Z,99280.97
2022-08-17T22:50:24.825Z,99286.83
2022-08-17T22:53:19.063Z,99285.98
2022-08-17T22:56:13.799Z,99289.08
2022-08-17T22:59:09.812Z,99288.12
2022-08-17T23:01:43.410Z,99284.14
2022-08-17T23:04:31.153Z,99284.96
2022-08-17T23:07:03.424Z,99285.77
2022-08-17T23:09:35.952Z,99290.50
2022-08-17T23:12:16.060Z,99295.35
2022-08-17T23:14:51.415Z,99300.61
2022-08-17T23:17:23.541Z,99301.39
2022-08-17T23:19:57.069Z,99297.66
2022-08-17T23:22:29.401Z,99302.75
2022-08-17T23:25:01.482Z,99307.65
2022-08-17T23:27:33.612Z,99310.98
2022-08-17T23:30:05.890Z,99310.61
2022-08-17T23:32:39.365Z,99310.32
2022-08-17T23:35:39.219Z,99312.77
2022-08-17T23:38:14.317Z,99316.94
2022-08-17T23:40:46.453Z,99315.70
2022-08-17T23:43:25.274Z,99316.36
2022-08-17T23:46:00.813Z,99319.10
2022-08-17T23:48:36.707Z,99313.74
2022-08-17T23:51:13.908Z,99313.38
2022-08-17T23:53:50.156Z,99308.88
2022-08-17T23:56:24.708Z,99310.06
2022-08-17T23:58:58.625Z,99308.76
